createdAt,value
2022-11-03T00:01:44.347Z,6.13
2022-11-03T00:04:13.013Z,6.30
2022-11-03T00:06:41.153Z,6.20
2022-11-03T00:09:10.696Z,5.75
2022-11-03T00:11:39.677Z,6.13
2022-11-03T00:14:06.734Z,6.25
2022-11-03T00:16:33.776Z,6.05
2022-11-03T00:19:00.900Z,6.13
2022-11-03T00:21:27.727Z,6.03
2022-11-03T00:23:54.525Z,6.63
2022-11-03T00:26:26.152Z,5.78
2022-11-03T00:28:54.561Z,6.47
2022-11-03T00:31:23.921Z,5.80
2022-11-03T00:33:51.032Z,5.55
2022-11-03T00:36:28.881Z,5.65
2022-11-03T00:38:56.034Z,5.30
2022-11-03T00:41:23.926Z,5.80
2022-11-03T00:43:51.587Z,5.50
2022-11-03T00:46:19.882Z,5.60
2022-11-03T00:48:46.435Z,5.93
2022-11-03T00:51:14.399Z,5.70
2022-11-03T00:53:55.584Z,5.30
2022-11-03T00:56:25.015Z,5.60
2022-11-03T00:58:52.610Z,5.70
2022-11-03T01:01:21.939Z,5.22
2022-11-03T01:04:10.440Z,4.78
2022-11-03T01:06:52.038Z,4.57
2022-11-03T01:09:22.926Z,4.95
2022-11-03T01:11:56.646Z,5.18
2022-11-03T01:14:24.769Z,5.22
2022-11-03T01:16:51.562Z,5.97
2022-11-03T01:19:18.125Z,5.45
2022-11-03T01:21:44.730Z,5.28
2022-11-03T01:24:11.259Z,5.22
2022-11-03T01:26:37.811Z,4.80
2022-11-03T01:29:05.522Z,5.35
2022-11-03T01:31:32.124Z,4.93
2022-11-03T01:33:58.899Z,5.85
2022-11-03T01:36:26.187Z,4.85
2022-11-03T01:38:55.239Z,5.78
2022-11-03T01:41:24.971Z,4.60
2022-11-03T01:44:08.078Z,5.18
2022-11-03T01:47:02.885Z,5.45
2022-11-03T01:49:48.594Z,4.97
2022-11-03T01:52:44.978Z,5.05
2022-11-03T01:55:17.017Z,4.70
2022-11-03T01:57:55.428Z,4.93
2022-11-03T02:00:22.293Z,5.18
2022-11-03T02:02:49.754Z,5.35
2022-11-03T02:05:17.073Z,4.55
2022-11-03T02:07:51.578Z,4.40
2022-11-03T02:10:18.275Z,4.78
2022-11-03T02:12:44.909Z,4.57
2022-11-03T02:15:17.279Z,4.70
2022-11-03T02:17:46.531Z,4.90
2022-11-03T02:20:26.237Z,4.55
2022-11-03T02:23:01.636Z,4.85
2022-11-03T02:25:37.059Z,4.38
2022-11-03T02:28:05.908Z,5.07
2022-11-03T02:30:42.809Z,4.90
2022-11-03T02:33:37.594Z,4.60
2022-11-03T02:36:15.123Z,4.47
2022-11-03T02:38:53.732Z,4.32
2022-11-03T02:41:21.904Z,4.32
2022-11-03T02:43:49.470Z,4.85
2022-11-03T02:46:17.196Z,5.30
2022-11-03T02:48:43.909Z,4.93
2022-11-03T02:51:11.231Z,4.80
2022-11-03T02:53:44.492Z,4.10
2022-11-03T02:56:15.228Z,4.50
2022-11-03T02:58:41.766Z,5.13
2022-11-03T03:01:27.214Z,4.68
2022-11-03T03:06:53.237Z,5.20
2022-11-03T03:09:27.269Z,4.70
2022-11-03T03:11:56.363Z,4.90
2022-11-03T03:14:30.632Z,4.32
2022-11-03T03:17:23.579Z,4.37
2022-11-03T03:19:53.313Z,4.15
2022-11-03T03:22:24.815Z,4.75
2022-11-03T03:25:29.317Z,4.47
2022-11-03T03:28:03.641Z,4.22
2022-11-03T03:30:32.447Z,4.10
2022-11-03T03:33:01.235Z,4.15
2022-11-03T03:35:30.822Z,4.28
2022-11-03T03:38:03.249Z,4.35
2022-11-03T03:40:34.340Z,4.28
2022-11-03T03:43:03.123Z,4.35
2022-11-03T03:45:31.148Z,4.20
2022-11-03T03:47:58.767Z,4.35
2022-11-03T03:50:29.302Z,4.57
2022-11-03T03:53:00.297Z,4.47
2022-11-03T03:55:45.315Z,4.32
2022-11-03T03:58:13.948Z,4.70
2022-11-03T04:00:41.096Z,4.28
2022-11-03T04:03:18.334Z,4.07
2022-11-03T04:05:45.483Z,4.10
2022-11-03T04:08:13.291Z,4.22
2022-11-03T04:10:40.137Z,4.00
2022-11-03T04:13:26.836Z,4.70
2022-11-03T04:16:12.384Z,4.80
2022-11-03T04:21:50.343Z,4.68
2022-11-03T04:24:16.873Z,4.45
2022-11-03T04:26:43.476Z,4.68
2022-11-03T04:29:10.913Z,4.90
2022-11-03T04:31:37.536Z,4.70
2022-11-03T04:34:09.279Z,4.25
2022-11-03T04:36:36.222Z,4.50
2022-11-03T04:39:16.615Z,4.80
2022-11-03T04:41:43.317Z,4.60
2022-11-03T04:44:16.724Z,4.82
2022-11-03T04:46:45.152Z,4.70
2022-11-03T04:49:20.814Z,4.60
2022-11-03T04:51:48.818Z,5.07
2022-11-03T04:54:24.331Z,5.45
2022-11-03T04:56:51.064Z,4.55
2022-11-03T04:59:17.716Z,4.93
2022-11-03T05:01:45.940Z,4.65
2022-11-03T05:04:17.766Z,4.70
2022-11-03T05:06:51.491Z,4.95
2022-11-03T05:09:25.690Z,4.93
2022-11-03T05:11:52.645Z,4.63
2022-11-03T05:14:19.370Z,4.45
2022-11-03T05:16:47.285Z,4.25
2022-11-03T05:19:30.466Z,4.65
2022-11-03T05:22:00.052Z,4.55
2022-11-03T05:24:27.634Z,4.60
2022-11-03T05:26:57.072Z,4.43
2022-11-03T05:29:44.399Z,4.03
2022-11-03T05:32:22.932Z,4.20
2022-11-03T05:34:53.990Z,4.50
2022-11-03T05:37:29.619Z,4.20
2022-11-03T05:40:04.918Z,3.95
2022-11-03T05:42:41.703Z,4.45
2022-11-03T05:45:32.245Z,4.25
2022-11-03T05:48:01.597Z,4.60
2022-11-03T05:50:34.874Z,5.00
2022-11-03T05:53:04.003Z,4.75
2022-11-03T05:55:33.087Z,4.82
2022-11-03T05:58:05.530Z,4.80
2022-11-03T06:00:37.394Z,4.32
2022-11-03T06:03:06.063Z,4.63
2022-11-03T06:05:34.309Z,4.97
2022-11-03T06:08:03.457Z,5.25
2022-11-03T06:10:34.347Z,5.60
2022-11-03T06:13:35.074Z,4.82
2022-11-03T06:16:05.953Z,4.55
2022-11-03T06:18:38.159Z,4.60
2022-11-03T06:21:12.225Z,5.00
2022-11-03T06:23:40.829Z,4.45
2022-11-03T06:26:18.727Z,5.00
2022-11-03T06:28:45.464Z,5.38
2022-11-03T06:31:23.422Z,4.75
2022-11-03T06:33:52.094Z,4.60
2022-11-03T06:36:21.439Z,4.47
2022-11-03T06:38:52.531Z,4.70
2022-11-03T06:41:31.286Z,5.60
2022-11-03T06:44:01.423Z,5.40
2022-11-03T06:46:28.093Z,5.40
2022-11-03T06:48:58.321Z,5.35
2022-11-03T06:51:28.135Z,6.28
2022-11-03T06:53:58.978Z,5.97
2022-11-03T06:56:31.374Z,5.68
2022-11-03T06:58:58.385Z,5.28
2022-11-03T07:01:31.574Z,6.22
2022-11-03T07:04:02.114Z,7.07
2022-11-03T07:06:36.044Z,7.45
2022-11-03T07:09:05.615Z,7.38
2022-11-03T07:11:37.244Z,7.18
2022-11-03T07:14:09.605Z,6.70
2022-11-03T07:16:47.626Z,6.90
2022-11-03T07:19:23.598Z,6.88
2022-11-03T07:21:56.160Z,7.53
2022-11-03T07:24:27.021Z,7.22
2022-11-03T07:27:16.163Z,7.90
2022-11-03T07:29:43.674Z,7.60
2022-11-03T07:32:20.059Z,7.47
2022-11-03T07:34:48.410Z,7.38
2022-11-03T07:37:19.935Z,8.30
2022-11-03T07:39:46.925Z,6.95
2022-11-03T07:42:18.240Z,7.28
2022-11-03T07:44:44.990Z,6.97
2022-11-03T07:47:21.217Z,6.60
2022-11-03T07:49:48.188Z,7.15
2022-11-03T07:52:19.762Z,7.80
2022-11-03T07:54:46.458Z,6.25
2022-11-03T07:57:23.099Z,6.03
2022-11-03T07:59:53.250Z,6.07
2022-11-03T08:02:34.168Z,6.22
2022-11-03T08:05:01.124Z,6.03
2022-11-03T08:07:27.975Z,6.50
2022-11-03T08:09:54.625Z,5.43
2022-11-03T08:12:21.563Z,5.18
2022-11-03T08:14:48.161Z,5.13
2022-11-03T08:17:15.402Z,5.65
2022-11-03T08:19:42.380Z,5.65
2022-11-03T08:22:09.238Z,5.93
2022-11-03T08:24:35.800Z,6.15
2022-11-03T08:27:03.433Z,14.40
2022-11-03T08:29:30.058Z,5.93
2022-11-03T08:31:56.665Z,5.93
2022-11-03T08:34:24.335Z,6.30
2022-11-03T08:36:50.850Z,5.63
2022-11-03T08:39:17.868Z,6.28
2022-11-03T08:41:44.451Z,5.85
2022-11-03T08:44:11.000Z,6.13
2022-11-03T08:46:37.613Z,6.15
2022-11-03T08:49:04.280Z,5.55
2022-11-03T08:51:30.846Z,6.57
2022-11-03T08:53:57.413Z,5.55
2022-11-03T08:56:24.026Z,6.00
2022-11-03T08:58:50.760Z,5.93
2022-11-03T09:01:17.364Z,6.03
2022-11-03T09:03:43.961Z,5.60
2022-11-03T09:06:10.788Z,6.22
2022-11-03T09:11:24.005Z,6.78
2022-11-03T09:13:50.537Z,5.65
2022-11-03T09:16:17.286Z,5.90
2022-11-03T09:18:44.034Z,6.28
2022-11-03T09:21:10.787Z,5.75
2022-11-03T09:23:37.302Z,7.22
2022-11-03T09:26:05.695Z,5.85
2022-11-03T09:28:32.416Z,6.22
2022-11-03T09:30:59.011Z,6.47
2022-11-03T09:33:25.633Z,5.80
2022-11-03T09:35:52.194Z,5.80
2022-11-03T09:38:18.979Z,5.72
2022-11-03T09:40:45.617Z,5.50
2022-11-03T09:43:12.398Z,5.68
2022-11-03T09:45:39.581Z,4.25
2022-11-03T09:48:12.789Z,4.18
2022-11-03T09:50:39.727Z,4.90
2022-11-03T09:53:06.994Z,3.55
2022-11-03T09:55:34.666Z,3.13
2022-11-03T09:58:09.552Z,8.15
2022-11-03T10:00:36.204Z,6.63
2022-11-03T10:03:05.006Z,3.30
2022-11-03T10:05:32.073Z,3.72
2022-11-03T10:08:06.910Z,3.35
2022-11-03T10:10:34.594Z,3.60
2022-11-03T10:13:02.354Z,3.08
2022-11-03T10:15:28.955Z,2.92
2022-11-03T10:17:56.007Z,3.35
2022-11-03T10:20:23.419Z,2.33
2022-11-03T10:22:54.432Z,3.10
2022-11-03T10:25:33.973Z,2.90
2022-11-03T10:28:26.797Z,2.80
2022-11-03T10:31:19.012Z,3.08
2022-11-03T10:33:54.534Z,2.63
2022-11-03T10:36:28.420Z,3.00
2022-11-03T10:38:55.645Z,2.10
2022-11-03T10:41:27.780Z,2.50
2022-11-03T10:44:16.189Z,2.92
2022-11-03T10:46:59.542Z,2.45
2022-11-03T10:49:29.302Z,2.33
2022-11-03T10:52:06.035Z,2.28
2022-11-03T10:54:36.093Z,2.58
2022-11-03T10:57:02.720Z,2.60
2022-11-03T10:59:32.855Z,2.17
2022-11-03T11:02:00.701Z,2.30
2022-11-03T11:04:27.827Z,2.17
2022-11-03T11:06:54.710Z,2.13
2022-11-03T11:09:26.953Z,2.20
2022-11-03T11:12:06.407Z,2.50
2022-11-03T11:14:39.561Z,2.38
2022-11-03T11:17:26.975Z,2.20
2022-11-03T11:20:22.307Z,3.30
2022-11-03T11:22:50.160Z,2.35
2022-11-03T11:25:20.448Z,2.25
2022-11-03T11:27:46.999Z,4.20
2022-11-03T11:30:19.551Z,2.38
2022-11-03T11:32:46.065Z,2.40
2022-11-03T11:35:15.663Z,2.20
2022-11-03T11:37:43.162Z,2.35
2022-11-03T11:40:34.566Z,2.58
2022-11-03T11:43:04.554Z,2.53
2022-11-03T11:46:09.812Z,2.58
2022-11-03T11:48:36.532Z,3.45
2022-11-03T11:51:08.026Z,2.40
2022-11-03T11:53:40.234Z,2.42
2022-11-03T11:56:10.437Z,2.63
2022-11-03T11:58:50.186Z,2.35
2022-11-03T12:01:24.321Z,2.22
2022-11-03T12:03:52.182Z,2.50
2022-11-03T12:06:35.489Z,3.00
2022-11-03T12:09:16.939Z,2.78
2022-11-03T12:11:46.951Z,2.30
2022-11-03T12:14:36.084Z,2.63
2022-11-03T12:17:17.646Z,2.60
2022-11-03T12:19:49.454Z,2.90
2022-11-03T12:22:26.010Z,2.90
2022-11-03T12:24:59.079Z,2.95
2022-11-03T12:27:25.630Z,2.35
2022-11-03T12:29:56.382Z,2.55
2022-11-03T12:32:34.038Z,3.00
2022-11-03T12:35:03.298Z,2.78
2022-11-03T12:37:29.966Z,2.78
2022-11-03T12:39:56.559Z,2.80
2022-11-03T12:42:24.807Z,2.40
2022-11-03T12:44:51.699Z,2.55
2022-11-03T12:47:18.300Z,2.83
2022-11-03T12:49:44.889Z,2.60
2022-11-03T12:52:11.628Z,2.90
2022-11-03T12:54:39.506Z,2.70
2022-11-03T12:57:06.058Z,2.70
2022-11-03T12:59:32.631Z,2.88
2022-11-03T13:01:59.273Z,2.85
2022-11-03T13:04:26.027Z,2.35
2022-11-03T13:06:52.664Z,2.88
2022-11-03T13:09:19.276Z,3.25
2022-11-03T13:12:04.293Z,2.90
2022-11-03T13:14:30.818Z,2.63
2022-11-03T13:16:57.387Z,2.72
2022-11-03T13:19:24.003Z,2.92
2022-11-03T13:21:50.522Z,2.70
2022-11-03T13:24:17.238Z,4.28
2022-11-03T13:26:43.758Z,7.45
2022-11-03T13:29:10.307Z,4.40
2022-11-03T13:31:36.906Z,3.60
2022-11-03T13:34:03.491Z,3.40
2022-11-03T13:36:30.109Z,3.65
2022-11-03T13:38:56.753Z,3.60
2022-11-03T13:41:23.315Z,3.88
2022-11-03T13:43:49.887Z,3.25
2022-11-03T13:46:16.440Z,3.83
2022-11-03T13:51:29.669Z,2.83
2022-11-03T13:59:29.617Z,3.08
2022-11-03T14:04:43.742Z,3.15
2022-11-03T14:07:10.931Z,3.13
2022-11-03T14:12:27.906Z,3.30
2022-11-03T14:14:54.550Z,2.83
2022-11-03T14:17:21.115Z,3.00
2022-11-03T14:19:52.443Z,3.10
2022-11-03T14:22:20.972Z,2.88
2022-11-03T14:24:48.077Z,3.22
2022-11-03T14:27:15.835Z,3.35
2022-11-03T14:29:45.980Z,2.80
2022-11-03T14:32:12.515Z,3.60
2022-11-03T14:34:39.157Z,2.90
2022-11-03T14:37:06.960Z,3.72
2022-11-03T14:39:33.564Z,3.08
2022-11-03T14:42:06.360Z,3.47
2022-11-03T14:44:34.774Z,3.78
2022-11-03T14:47:02.687Z,3.35
2022-11-03T14:49:30.635Z,3.42
2022-11-03T14:51:58.006Z,3.00
2022-11-03T14:54:24.652Z,3.20
2022-11-03T14:56:51.766Z,3.15
2022-11-03T14:59:18.987Z,3.50
2022-11-03T15:01:46.889Z,3.70
2022-11-03T15:04:14.081Z,4.35
2022-11-03T15:06:41.578Z,3.55
2022-11-03T15:11:41.730Z,3.65
2022-11-03T15:14:08.637Z,3.22
2022-11-03T15:16:36.135Z,3.58
2022-11-03T15:19:04.206Z,3.70
2022-11-03T15:21:31.432Z,3.78
2022-11-03T15:26:44.973Z,3.42
2022-11-03T15:29:11.627Z,4.00
2022-11-03T15:31:39.224Z,4.00
2022-11-03T15:34:08.739Z,4.18
2022-11-03T15:36:35.718Z,3.97
2022-11-03T15:39:02.469Z,4.38
2022-11-03T15:41:29.072Z,3.88
2022-11-03T15:43:55.707Z,3.35
2022-11-03T15:46:22.528Z,3.85
2022-11-03T15:48:49.239Z,3.83
2022-11-03T15:51:16.063Z,4.20
2022-11-03T15:53:43.684Z,3.97
2022-11-03T15:56:10.369Z,4.13
2022-11-03T15:58:37.485Z,4.53
2022-11-03T16:01:05.090Z,4.00
2022-11-03T16:03:32.182Z,4.50
2022-11-03T16:05:59.196Z,4.25
2022-11-03T16:08:26.136Z,4.00
2022-11-03T16:10:57.713Z,3.65
2022-11-03T16:13:25.467Z,3.53
2022-11-03T16:15:54.254Z,4.07
2022-11-03T16:18:20.786Z,3.90
2022-11-03T16:20:47.322Z,4.18
2022-11-03T16:23:13.895Z,3.97
2022-11-03T16:25:41.008Z,4.18
2022-11-03T16:28:07.760Z,4.85
2022-11-03T16:30:35.303Z,4.95
2022-11-03T16:33:02.129Z,5.00
2022-11-03T16:35:29.589Z,4.65
2022-11-03T16:37:56.159Z,5.07
2022-11-03T16:40:22.778Z,5.20
2022-11-03T16:42:49.346Z,4.82
2022-11-03T16:45:21.923Z,5.18
2022-11-03T16:47:50.131Z,4.78
2022-11-03T16:50:18.074Z,4.78
2022-11-03T16:52:46.366Z,4.95
2022-11-03T16:55:14.773Z,4.80
2022-11-03T16:57:41.951Z,4.68
2022-11-03T17:00:13.658Z,5.55
2022-11-03T17:02:40.527Z,4.97
2022-11-03T17:05:08.086Z,5.45
2022-11-03T17:07:34.711Z,5.38
2022-11-03T17:10:01.542Z,5.05
2022-11-03T17:12:28.213Z,5.20
2022-11-03T17:14:56.745Z,5.13
2022-11-03T17:17:23.613Z,6.35
2022-11-03T17:19:51.820Z,5.57
2022-11-03T17:22:20.122Z,6.18
2022-11-03T17:24:46.842Z,5.28
2022-11-03T17:27:17.860Z,5.60
2022-11-03T17:29:49.469Z,5.72
2022-11-03T17:32:27.000Z,5.43
2022-11-03T17:34:54.052Z,5.32
2022-11-03T17:37:23.647Z,5.75
2022-11-03T17:39:50.641Z,5.60
2022-11-03T17:42:25.601Z,5.97
2022-11-03T17:44:55.291Z,5.60
2022-11-03T17:47:23.239Z,5.72
2022-11-03T17:49:50.859Z,5.00
2022-11-03T17:52:27.798Z,5.85
2022-11-03T17:54:57.490Z,6.30
2022-11-03T17:57:25.476Z,6.57
2022-11-03T17:59:55.068Z,6.47
2022-11-03T18:02:27.916Z,6.20
2022-11-03T18:05:31.202Z,5.90
2022-11-03T18:08:00.206Z,6.38
2022-11-03T18:10:35.316Z,6.47
2022-11-03T18:13:18.796Z,6.25
2022-11-03T18:15:57.601Z,6.40
2022-11-03T18:18:41.719Z,9.02
2022-11-03T18:21:17.765Z,10.07
2022-11-03T18:23:44.665Z,14.48
2022-11-03T18:26:21.586Z,12.27
2022-11-03T18:28:50.204Z,15.13
2022-11-03T18:31:25.197Z,17.30
2022-11-03T18:33:53.033Z,14.18
2022-11-03T18:36:20.458Z,14.18
2022-11-03T18:38:48.690Z,12.02
2022-11-03T18:41:38.391Z,12.23
2022-11-03T18:44:17.528Z,11.98
2022-11-03T18:46:44.292Z,12.25
2022-11-03T18:49:11.261Z,12.15
2022-11-03T18:51:39.033Z,10.45
2022-11-03T18:54:12.781Z,9.38
2022-11-03T18:56:40.727Z,9.45
2022-11-03T18:59:23.971Z,8.98
2022-11-03T19:01:51.120Z,7.95
2022-11-03T19:04:17.905Z,9.18
2022-11-03T19:06:49.340Z,10.40
2022-11-03T19:09:19.696Z,12.15
2022-11-03T19:11:49.573Z,10.45
2022-11-03T19:14:28.457Z,9.25
2022-11-03T19:19:44.289Z,6.97
2022-11-03T19:22:13.026Z,7.15
2022-11-03T19:24:40.306Z,6.90
2022-11-03T19:27:11.029Z,6.72
2022-11-03T19:29:39.861Z,6.68
2022-11-03T19:32:20.874Z,6.63
2022-11-03T19:34:52.375Z,5.93
2022-11-03T19:37:18.917Z,6.35
2022-11-03T19:39:46.320Z,5.97
2022-11-03T19:42:27.561Z,5.07
2022-11-03T19:44:58.834Z,5.82
2022-11-03T19:47:32.583Z,7.00
2022-11-03T19:50:01.497Z,6.18
2022-11-03T19:52:30.090Z,6.57
2022-11-03T19:54:57.756Z,6.75
2022-11-03T19:57:24.335Z,7.05
2022-11-03T19:59:51.177Z,7.82
2022-11-03T20:02:18.080Z,8.15
2022-11-03T20:04:47.122Z,7.82
2022-11-03T20:07:15.530Z,7.20
2022-11-03T20:09:43.044Z,7.68
2022-11-03T20:12:15.351Z,7.10
2022-11-03T20:14:41.962Z,8.10
2022-11-03T20:17:19.923Z,7.20
2022-11-03T20:19:46.523Z,7.53
2022-11-03T20:22:18.144Z,7.43
2022-11-03T20:24:48.631Z,7.82
2022-11-03T20:27:18.750Z,7.82
2022-11-03T20:29:45.412Z,8.20
2022-11-03T20:32:12.752Z,8.23
2022-11-03T20:34:40.431Z,8.45
2022-11-03T20:37:18.181Z,9.35
2022-11-03T20:39:46.144Z,10.13
2022-11-03T20:42:21.491Z,9.55
2022-11-03T20:44:48.119Z,8.65
2022-11-03T20:47:15.228Z,7.78
2022-11-03T20:49:42.128Z,7.60
2022-11-03T20:52:14.444Z,8.65
2022-11-03T20:54:43.284Z,7.45
2022-11-03T20:57:13.330Z,7.97
2022-11-03T20:59:40.252Z,8.40
2022-11-03T21:02:13.859Z,8.13
2022-11-03T21:04:43.007Z,7.20
2022-11-03T21:07:13.402Z,8.02
2022-11-03T21:09:40.619Z,7.85
2022-11-03T21:12:13.275Z,7.95
2022-11-03T21:15:01.451Z,7.90
2022-11-03T21:17:46.440Z,8.20
2022-11-03T21:20:13.183Z,8.52
2022-11-03T21:22:57.172Z,8.82
2022-11-03T21:25:24.904Z,8.27
2022-11-03T21:27:53.488Z,7.68
2022-11-03T21:30:20.899Z,8.00
2022-11-03T21:32:47.900Z,8.00
2022-11-03T21:35:21.424Z,6.82
2022-11-03T21:37:48.096Z,7.40
2022-11-03T21:40:14.885Z,6.10
2022-11-03T21:42:59.978Z,6.28
2022-11-03T21:45:26.612Z,6.55
2022-11-03T21:48:13.966Z,7.32
2022-11-03T21:50:42.223Z,6.75
2022-11-03T21:53:09.425Z,6.05
2022-11-03T21:55:36.482Z,6.68
2022-11-03T21:58:04.016Z,6.63
2022-11-03T22:00:31.541Z,7.38
2022-11-03T22:02:59.098Z,6.53
2022-11-03T22:05:26.408Z,6.28
2022-11-03T22:07:53.362Z,6.75
2022-11-03T22:10:21.030Z,6.57
2022-11-03T22:12:47.834Z,6.68
2022-11-03T22:15:33.604Z,7.00
2022-11-03T22:18:04.727Z,7.80
2022-11-03T22:20:49.983Z,6.80
2022-11-03T22:23:41.749Z,6.32
2022-11-03T22:26:30.127Z,6.22
2022-11-03T22:29:39.541Z,6.50
2022-11-03T22:32:15.724Z,6.88
2022-11-03T22:35:00.782Z,5.65
2022-11-03T22:37:27.336Z,6.20
2022-11-03T22:40:12.441Z,5.88
2022-11-03T22:42:57.628Z,7.10
2022-11-03T22:45:42.985Z,6.18
2022-11-03T22:48:10.745Z,6.88
2022-11-03T22:50:37.262Z,5.82
2022-11-03T22:53:24.163Z,7.18
2022-11-03T22:55:51.332Z,6.78
2022-11-03T22:58:17.918Z,7.43
2022-11-03T23:00:47.900Z,7.57
2022-11-03T23:03:14.645Z,7.88
2022-11-03T23:05:42.196Z,7.15
2022-11-03T23:08:08.859Z,7.90
2022-11-03T23:10:35.439Z,8.00
2022-11-03T23:13:01.957Z,7.85
2022-11-03T23:15:34.640Z,8.55
2022-11-03T23:18:21.749Z,8.60
2022-11-03T23:21:06.733Z,8.35
2022-11-03T23:23:56.538Z,9.15
2022-11-03T23:26:25.612Z,8.80
2022-11-03T23:28:52.893Z,7.63
2022-11-03T23:31:19.453Z,8.77
2022-11-03T23:33:46.182Z,8.85
2022-11-03T23:36:14.762Z,8.40
2022-11-03T23:38:42.040Z,8.50
2022-11-03T23:41:15.355Z,8.05
2022-11-03T23:43:44.261Z,8.90
2022-11-03T23:46:32.023Z,8.25
2022-11-03T23:48:58.733Z,8.18
2022-11-03T23:51:27.361Z,7.38
2022-11-03T23:53:55.413Z,8.05
2022-11-03T23:56:43.258Z,8.60
2022-11-03T23:59:10.904Z,7.35
